createdAt,value
2024-02-28T00:00:54.264Z,5.75
2024-02-28T00:03:21.018Z,2.47
2024-02-28T00:05:47.708Z,3.20
2024-02-28T00:08:14.306Z,2.45
2024-02-28T00:10:40.778Z,1.80
2024-02-28T00:13:07.338Z,3.35
2024-02-28T00:15:34.223Z,7.20
2024-02-28T00:18:00.816Z,5.28
2024-02-28T00:20:28.434Z,5.97
2024-02-28T00:22:54.953Z,9.35
2024-02-28T00:25:21.477Z,22.88
2024-02-28T00:27:48.229Z,4.82
2024-02-28T00:30:14.849Z,4.50
2024-02-28T00:32:41.445Z,8.80
2024-02-28T00:35:08.426Z,2.35
2024-02-28T00:37:34.936Z,2.67
2024-02-28T00:40:01.509Z,3.63
2024-02-28T00:42:28.470Z,5.80
2024-02-28T00:44:55.215Z,7.47
2024-02-28T00:47:21.805Z,4.00
2024-02-28T00:49:48.403Z,4.25
2024-02-28T00:52:15.061Z,5.88
2024-02-28T00:54:42.762Z,6.72
2024-02-28T00:57:12.701Z,2.67
2024-02-28T00:59:39.329Z,6.55
2024-02-28T01:02:05.839Z,2.30
2024-02-28T01:04:32.489Z,8.48
2024-02-28T01:06:59.059Z,7.13
2024-02-28T01:09:25.796Z,4.63
2024-02-28T01:11:52.416Z,3.97
2024-02-28T01:14:18.968Z,3.30
2024-02-28T01:16:45.658Z,6.88
2024-02-28T01:19:12.293Z,4.43
2024-02-28T01:21:39.822Z,3.85
2024-02-28T01:24:06.454Z,6.10
2024-02-28T01:26:32.925Z,5.07
2024-02-28T01:28:59.636Z,6.63
2024-02-28T01:31:26.226Z,8.52
2024-02-28T01:33:52.986Z,2.75
2024-02-28T01:36:19.596Z,4.10
2024-02-28T01:38:46.078Z,4.93
2024-02-28T01:41:13.098Z,2.90
2024-02-28T01:43:39.654Z,6.85
2024-02-28T01:46:11.266Z,4.03
2024-02-28T01:48:37.955Z,2.27
2024-02-28T01:51:04.758Z,7.35
2024-02-28T01:53:31.387Z,10.73
2024-02-28T01:55:58.169Z,5.90
2024-02-28T01:58:24.832Z,4.10
2024-02-28T02:00:51.733Z,7.72
2024-02-28T02:03:18.322Z,10.52
2024-02-28T02:05:44.854Z,9.55
2024-02-28T02:08:12.461Z,7.47
2024-02-28T02:10:39.047Z,6.25
2024-02-28T02:13:06.205Z,4.78
2024-02-28T02:15:32.805Z,7.18
2024-02-28T02:17:59.525Z,8.52
2024-02-28T02:20:27.381Z,9.80
2024-02-28T02:22:54.445Z,7.10
2024-02-28T02:25:21.076Z,12.65
2024-02-28T02:27:50.131Z,13.32
2024-02-28T02:30:16.751Z,6.38
2024-02-28T02:32:43.407Z,5.97
2024-02-28T02:35:09.961Z,6.18
2024-02-28T02:37:36.517Z,9.68
2024-02-28T02:40:03.113Z,12.18
2024-02-28T02:42:29.705Z,8.32
2024-02-28T02:44:56.222Z,8.55
2024-02-28T02:47:23.088Z,10.77
2024-02-28T02:49:49.673Z,4.93
2024-02-28T02:52:16.169Z,4.13
2024-02-28T02:54:42.673Z,6.80
2024-02-28T02:57:09.210Z,4.88
2024-02-28T02:59:36.945Z,5.97
2024-02-28T03:02:05.059Z,9.30
2024-02-28T03:04:31.932Z,4.82
2024-02-28T03:06:59.159Z,7.18
2024-02-28T03:09:25.920Z,5.05
2024-02-28T03:11:52.562Z,5.30
2024-02-28T03:14:20.102Z,1.63
2024-02-28T03:16:49.058Z,5.90
2024-02-28T03:19:16.042Z,12.57
2024-02-28T03:21:42.594Z,2.97
2024-02-28T03:24:09.166Z,4.20
2024-02-28T03:26:35.659Z,8.05
2024-02-28T03:29:02.206Z,3.40
2024-02-28T03:31:28.796Z,2.38
2024-02-28T03:33:55.758Z,2.15
2024-02-28T03:36:22.510Z,8.07
2024-02-28T03:38:49.063Z,2.10
2024-02-28T03:41:15.785Z,2.60
2024-02-28T03:43:42.250Z,4.45
2024-02-28T03:46:09.266Z,2.40
2024-02-28T03:48:35.963Z,3.13
2024-02-28T03:51:02.481Z,12.00
2024-02-28T03:53:31.469Z,3.95
2024-02-28T03:55:58.159Z,6.10
2024-02-28T03:58:25.493Z,4.13
2024-02-28T04:00:52.195Z,7.03
2024-02-28T04:03:18.985Z,3.22
2024-02-28T04:05:45.514Z,2.92
2024-02-28T04:08:12.587Z,5.63
2024-02-28T04:10:39.156Z,2.30
2024-02-28T04:13:05.709Z,7.25
2024-02-28T04:15:32.400Z,7.05
2024-02-28T04:17:59.166Z,12.43
2024-02-28T04:20:25.759Z,8.13
2024-02-28T04:22:52.283Z,3.50
2024-02-28T04:25:18.964Z,15.13
2024-02-28T04:27:45.867Z,3.63
2024-02-28T04:30:12.444Z,4.63
2024-02-28T04:32:39.656Z,6.20
2024-02-28T04:35:07.759Z,1.98
2024-02-28T04:37:35.901Z,10.93
2024-02-28T04:40:02.633Z,10.48
2024-02-28T04:42:29.294Z,7.57
2024-02-28T04:44:55.823Z,2.67
2024-02-28T04:47:29.592Z,2.20
2024-02-28T04:50:00.290Z,1.83
2024-02-28T04:52:28.406Z,4.50
2024-02-28T04:54:55.183Z,6.32
2024-02-28T04:57:21.884Z,4.82
2024-02-28T04:59:48.467Z,6.28
2024-02-28T05:02:15.120Z,3.50
2024-02-28T05:04:41.744Z,5.95
2024-02-28T05:07:08.705Z,5.22
2024-02-28T05:09:35.397Z,3.10
2024-02-28T05:12:02.560Z,4.55
2024-02-28T05:14:29.350Z,6.30
2024-02-28T05:16:58.325Z,5.07
2024-02-28T05:19:24.959Z,6.40
2024-02-28T05:21:51.598Z,11.50
2024-02-28T05:24:18.238Z,8.48
2024-02-28T05:26:44.945Z,12.50
2024-02-28T05:29:11.468Z,14.40
2024-02-28T05:31:39.474Z,4.97
2024-02-28T05:34:06.356Z,10.05
2024-02-28T05:36:32.962Z,6.40
2024-02-28T05:39:01.064Z,5.30
2024-02-28T05:41:27.763Z,7.20
2024-02-28T05:43:54.597Z,5.25
2024-02-28T05:46:23.202Z,8.18
2024-02-28T05:48:49.780Z,7.40
2024-02-28T05:51:16.893Z,4.32
2024-02-28T05:53:43.938Z,5.88
2024-02-28T05:56:18.193Z,5.88
2024-02-28T05:58:45.730Z,9.48
2024-02-28T06:01:12.938Z,11.20
2024-02-28T06:03:39.813Z,10.88
2024-02-28T06:06:06.462Z,7.97
2024-02-28T06:08:38.658Z,7.63
2024-02-28T06:11:06.273Z,2.33
2024-02-28T06:13:32.836Z,9.88
2024-02-28T06:15:59.640Z,8.50
2024-02-28T06:18:28.307Z,12.48
2024-02-28T06:20:58.239Z,6.30
2024-02-28T06:23:28.909Z,7.13
2024-02-28T06:25:57.124Z,11.20
2024-02-28T06:28:23.787Z,17.60
2024-02-28T06:30:50.349Z,26.65
2024-02-28T06:33:17.143Z,12.55
2024-02-28T06:35:43.836Z,8.23
2024-02-28T06:38:10.644Z,6.85
2024-02-28T06:40:37.303Z,18.85
2024-02-28T06:43:04.047Z,13.10
2024-02-28T06:45:30.840Z,14.93
2024-02-28T06:47:57.523Z,14.90
2024-02-28T06:50:24.070Z,13.15
2024-02-28T06:52:50.607Z,7.25
2024-02-28T06:55:17.203Z,8.40
2024-02-28T06:57:43.976Z,12.32
2024-02-28T07:00:12.410Z,15.90
2024-02-28T07:02:39.068Z,18.70
2024-02-28T07:05:05.848Z,10.65
2024-02-28T07:07:32.485Z,24.67
2024-02-28T07:09:59.298Z,17.45
2024-02-28T07:12:26.187Z,12.40
2024-02-28T07:14:53.079Z,9.55
2024-02-28T07:17:20.157Z,15.23
2024-02-28T07:19:46.874Z,18.67
2024-02-28T07:22:13.412Z,12.85
2024-02-28T07:24:40.061Z,27.38
2024-02-28T07:27:06.587Z,8.48
2024-02-28T07:29:33.141Z,12.60
2024-02-28T07:31:59.752Z,10.30
2024-02-28T07:34:26.284Z,13.35
2024-02-28T07:36:52.914Z,8.75
2024-02-28T07:39:19.775Z,12.63
2024-02-28T07:41:46.392Z,11.32
2024-02-28T07:44:12.942Z,15.20
2024-02-28T07:46:41.847Z,18.63
2024-02-28T07:49:08.477Z,10.20
2024-02-28T07:51:35.229Z,18.80
2024-02-28T07:54:02.012Z,9.80
2024-02-28T07:56:28.572Z,14.25
2024-02-28T07:58:57.813Z,23.67
2024-02-28T08:01:25.273Z,16.10
2024-02-28T08:03:52.195Z,10.85
2024-02-28T08:06:18.989Z,22.20
2024-02-28T08:08:47.727Z,13.35
2024-02-28T08:11:15.509Z,12.00
2024-02-28T08:13:42.217Z,16.23
2024-02-28T08:16:10.499Z,11.13
2024-02-28T08:18:37.184Z,15.65
2024-02-28T08:21:04.432Z,11.50
2024-02-28T08:23:32.411Z,13.88
2024-02-28T08:25:59.608Z,9.68
2024-02-28T08:28:26.390Z,12.50
2024-02-28T08:30:53.253Z,8.73
2024-02-28T08:33:22.769Z,12.98
2024-02-28T08:35:52.847Z,20.25
2024-02-28T08:38:19.582Z,14.70
2024-02-28T08:40:46.872Z,21.27
2024-02-28T08:43:13.937Z,12.70
2024-02-28T08:45:40.696Z,8.27
2024-02-28T08:48:09.008Z,11.02
2024-02-28T08:50:36.373Z,7.15
2024-02-28T08:53:04.428Z,12.88
2024-02-28T08:55:32.439Z,18.10
2024-02-28T08:57:59.645Z,9.45
2024-02-28T09:00:26.896Z,19.20
2024-02-28T09:02:53.633Z,14.25
2024-02-28T09:05:20.182Z,10.73
2024-02-28T09:07:52.608Z,7.40
2024-02-28T09:12:53.003Z,6.93
2024-02-28T09:15:20.165Z,6.90
2024-02-28T09:17:46.792Z,19.30
2024-02-28T09:20:13.434Z,10.13
2024-02-28T09:22:40.709Z,11.98
2024-02-28T09:25:07.534Z,20.95
2024-02-28T09:27:34.426Z,11.63
2024-02-28T09:30:01.003Z,17.88
2024-02-28T09:32:28.624Z,8.77
2024-02-28T09:34:55.256Z,11.82
2024-02-28T09:37:23.682Z,12.98
2024-02-28T09:39:50.463Z,22.02
2024-02-28T09:42:17.333Z,18.05
2024-02-28T09:44:45.667Z,14.55
2024-02-28T09:47:12.711Z,10.23
2024-02-28T09:49:39.683Z,17.63
2024-02-28T09:52:06.644Z,17.83
2024-02-28T09:54:33.487Z,13.00
2024-02-28T09:57:00.973Z,11.02
2024-02-28T09:59:35.295Z,13.52
2024-02-28T10:02:11.476Z,17.67
2024-02-28T10:04:38.362Z,16.50
2024-02-28T10:07:13.880Z,20.65
2024-02-28T10:09:41.491Z,12.23
2024-02-28T10:12:08.600Z,6.88
2024-02-28T10:14:35.558Z,13.60
2024-02-28T10:17:02.184Z,15.77
2024-02-28T10:19:28.785Z,11.43
2024-02-28T10:21:55.623Z,8.65
2024-02-28T10:24:25.072Z,5.63
2024-02-28T10:26:57.687Z,10.90
2024-02-28T10:29:29.415Z,24.58
2024-02-28T10:31:56.974Z,8.47
2024-02-28T10:34:24.102Z,14.98
2024-02-28T10:36:51.127Z,9.95
2024-02-28T10:39:18.477Z,9.38
2024-02-28T10:41:47.826Z,16.17
2024-02-28T10:44:14.780Z,11.45
2024-02-28T10:46:41.800Z,16.35
2024-02-28T10:49:10.334Z,18.42
2024-02-28T10:51:40.245Z,15.70
2024-02-28T10:54:06.794Z,11.23
2024-02-28T10:56:33.534Z,17.10
2024-02-28T10:59:00.466Z,9.13
2024-02-28T11:01:27.545Z,16.23
2024-02-28T11:03:55.692Z,9.27
2024-02-28T11:06:23.726Z,15.60
2024-02-28T11:08:57.481Z,6.93
2024-02-28T11:11:24.622Z,8.02
2024-02-28T11:13:55.392Z,7.70
2024-02-28T11:16:32.339Z,9.48
2024-02-28T11:18:59.807Z,9.95
2024-02-28T11:21:27.368Z,9.80
2024-02-28T11:24:03.072Z,8.70
2024-02-28T11:26:30.296Z,11.32
2024-02-28T11:28:57.177Z,9.63
2024-02-28T11:31:24.123Z,11.95
2024-02-28T11:33:50.943Z,7.30
2024-02-28T11:36:17.893Z,8.15
2024-02-28T11:38:44.856Z,13.52
2024-02-28T11:41:12.304Z,10.65
2024-02-28T11:43:50.461Z,6.03
2024-02-28T11:46:19.924Z,7.40
2024-02-28T11:48:47.953Z,4.45
2024-02-28T11:51:15.701Z,13.93
2024-02-28T11:53:43.126Z,5.00
2024-02-28T11:56:10.143Z,7.70
2024-02-28T11:58:37.268Z,9.90
2024-02-28T12:01:04.726Z,9.45
2024-02-28T12:03:32.390Z,4.55
2024-02-28T12:05:59.980Z,17.58
2024-02-28T12:08:30.221Z,9.70
2024-02-28T12:11:06.966Z,19.88
2024-02-28T12:13:33.837Z,10.90
2024-02-28T12:16:04.056Z,9.00
2024-02-28T12:18:37.862Z,15.70
2024-02-28T12:21:05.182Z,6.57
2024-02-28T12:23:31.816Z,11.25
2024-02-28T12:25:58.519Z,3.83
2024-02-28T12:28:25.261Z,5.47
2024-02-28T12:30:56.928Z,11.15
2024-02-28T12:33:24.177Z,2.78
2024-02-28T12:35:51.153Z,8.68
2024-02-28T12:38:18.406Z,7.22
2024-02-28T12:40:45.240Z,3.97
2024-02-28T12:43:12.167Z,8.50
2024-02-28T12:45:39.185Z,7.50
2024-02-28T12:48:07.340Z,5.88
2024-02-28T12:50:34.958Z,6.90
2024-02-28T12:53:02.561Z,12.65
2024-02-28T12:55:29.120Z,6.63
2024-02-28T12:57:56.633Z,3.15
2024-02-28T13:00:23.448Z,4.82
2024-02-28T13:02:50.147Z,6.97
2024-02-28T13:05:17.028Z,6.15
2024-02-28T13:07:43.793Z,5.05
2024-02-28T13:10:10.983Z,3.83
2024-02-28T13:12:39.456Z,3.78
2024-02-28T13:15:06.734Z,6.57
2024-02-28T13:17:33.510Z,7.07
2024-02-28T13:20:00.050Z,5.90
2024-02-28T13:22:26.613Z,6.18
2024-02-28T13:24:53.506Z,7.00
2024-02-28T13:27:20.332Z,5.95
2024-02-28T13:29:47.090Z,4.85
2024-02-28T13:32:13.726Z,2.90
2024-02-28T13:34:40.811Z,21.65
2024-02-28T13:37:07.985Z,13.85
2024-02-28T13:39:35.878Z,6.03
2024-02-28T13:42:06.259Z,8.20
2024-02-28T13:44:33.042Z,5.03
2024-02-28T13:47:00.020Z,8.73
2024-02-28T13:49:26.802Z,13.40
2024-02-28T13:51:53.670Z,6.05
2024-02-28T13:54:20.408Z,12.07
2024-02-28T13:56:47.940Z,6.03
2024-02-28T13:59:15.000Z,10.65
2024-02-28T14:01:42.704Z,3.50
2024-02-28T14:04:09.656Z,8.63
2024-02-28T14:06:36.338Z,12.73
2024-02-28T14:09:03.944Z,5.32
2024-02-28T14:11:31.143Z,11.63
2024-02-28T14:13:58.154Z,4.60
2024-02-28T14:16:24.748Z,5.47
2024-02-28T14:18:52.166Z,8.32
2024-02-28T14:21:20.589Z,4.97
2024-02-28T14:23:47.788Z,4.40
2024-02-28T14:26:15.036Z,4.28
2024-02-28T14:28:42.435Z,12.93
2024-02-28T14:31:09.425Z,6.60
2024-02-28T14:33:37.900Z,10.82
2024-02-28T14:36:08.295Z,3.92
2024-02-28T14:38:35.286Z,7.43
2024-02-28T14:41:02.348Z,8.30
2024-02-28T14:43:31.145Z,7.85
2024-02-28T14:45:58.104Z,4.75
2024-02-28T14:48:24.833Z,8.60
2024-02-28T14:50:51.749Z,14.25
2024-02-28T14:53:20.928Z,5.38
2024-02-28T14:55:48.707Z,8.52
2024-02-28T14:58:15.981Z,9.73
2024-02-28T15:00:43.280Z,6.18
2024-02-28T15:03:10.002Z,5.47
2024-02-28T15:05:36.801Z,10.15
2024-02-28T15:08:03.709Z,6.03
2024-02-28T15:10:30.348Z,8.55
2024-02-28T15:12:57.357Z,8.98
2024-02-28T15:15:24.326Z,5.47
2024-02-28T15:17:51.591Z,7.03
2024-02-28T15:20:18.248Z,15.05
2024-02-28T15:22:46.748Z,20.23
2024-02-28T15:25:13.992Z,8.73
2024-02-28T15:27:41.587Z,31.70
2024-02-28T15:30:08.705Z,11.35
2024-02-28T15:32:35.544Z,6.43
2024-02-28T15:35:02.403Z,14.10
2024-02-28T15:37:29.106Z,17.67
2024-02-28T15:39:56.823Z,13.10
2024-02-28T15:42:23.853Z,19.00
2024-02-28T15:44:50.478Z,16.80
2024-02-28T15:47:17.379Z,11.38
2024-02-28T15:49:44.004Z,7.97
2024-02-28T15:52:11.289Z,7.40
2024-02-28T15:54:40.023Z,20.38
2024-02-28T15:57:07.266Z,76.30
2024-02-28T15:59:35.157Z,11.02
2024-02-28T16:02:02.454Z,12.07
2024-02-28T16:04:29.263Z,9.07
2024-02-28T16:06:56.028Z,15.27
2024-02-28T16:09:23.312Z,26.38
2024-02-28T16:11:50.365Z,17.38
2024-02-28T16:14:17.833Z,23.25
2024-02-28T16:16:48.146Z,22.10
2024-02-28T16:19:22.560Z,30.13
2024-02-28T16:21:54.292Z,19.50
2024-02-28T16:24:21.330Z,27.65
2024-02-28T16:26:48.939Z,18.30
2024-02-28T16:29:16.358Z,8.25
2024-02-28T16:31:50.464Z,11.07
2024-02-28T16:34:20.341Z,11.10
2024-02-28T16:36:47.991Z,11.23
2024-02-28T16:39:15.180Z,28.13
2024-02-28T16:41:42.770Z,23.88
2024-02-28T16:44:09.664Z,20.83
2024-02-28T16:46:36.874Z,33.42
2024-02-28T16:49:03.745Z,17.15
2024-02-28T16:51:30.446Z,16.35
2024-02-28T16:53:58.947Z,13.20
2024-02-28T16:56:28.842Z,15.60
2024-02-28T16:58:55.512Z,8.98
2024-02-28T17:01:25.495Z,6.72
2024-02-28T17:03:52.548Z,10.52
2024-02-28T17:06:19.150Z,8.32
2024-02-28T17:08:45.973Z,4.03
2024-02-28T17:11:13.697Z,7.53
2024-02-28T17:13:40.727Z,12.57
2024-02-28T17:16:07.672Z,12.13
2024-02-28T17:18:35.096Z,13.70
2024-02-28T17:21:04.989Z,8.52
2024-02-28T17:23:31.984Z,7.63
2024-02-28T17:26:00.039Z,8.63
2024-02-28T17:28:27.123Z,8.13
2024-02-28T17:30:53.912Z,12.57
2024-02-28T17:33:22.332Z,9.75
2024-02-28T17:35:49.363Z,12.55
2024-02-28T17:38:17.149Z,11.70
2024-02-28T17:40:44.279Z,5.82
2024-02-28T17:43:11.725Z,10.65
2024-02-28T17:45:39.680Z,5.70
2024-02-28T17:48:08.098Z,20.15
2024-02-28T17:50:35.010Z,14.38
2024-02-28T17:53:01.816Z,8.95
2024-02-28T17:55:29.420Z,15.18
2024-02-28T17:57:56.381Z,8.88
2024-02-28T18:00:26.789Z,18.38
2024-02-28T18:02:56.922Z,32.38
2024-02-28T18:05:25.349Z,23.95
2024-02-28T18:07:54.597Z,32.20
2024-02-28T18:10:21.908Z,17.42
2024-02-28T18:12:49.062Z,32.13
2024-02-28T18:15:17.221Z,23.08
2024-02-28T18:17:44.571Z,22.52
2024-02-28T18:20:11.541Z,16.83
2024-02-28T18:22:38.532Z,19.52
2024-02-28T18:25:07.274Z,39.17
2024-02-28T18:27:35.868Z,28.25
2024-02-28T18:30:02.851Z,24.88
2024-02-28T18:32:32.117Z,18.92
2024-02-28T18:35:01.752Z,19.98
2024-02-28T18:37:36.159Z,22.02
2024-02-28T18:40:13.871Z,16.20
2024-02-28T18:42:41.021Z,26.95
2024-02-28T18:45:08.911Z,37.80
2024-02-28T18:47:36.992Z,18.15
2024-02-28T18:50:05.879Z,26.52
2024-02-28T18:52:33.305Z,22.10
2024-02-28T18:55:00.702Z,26.65
2024-02-28T18:57:27.434Z,25.48
2024-02-28T18:59:55.806Z,30.65
2024-02-28T19:02:22.600Z,32.15
2024-02-28T19:04:49.266Z,26.48
2024-02-28T19:07:16.731Z,23.95
2024-02-28T19:09:43.527Z,36.03
2024-02-28T19:12:11.348Z,31.80
2024-02-28T19:14:38.641Z,31.75
2024-02-28T19:17:05.585Z,28.40
2024-02-28T19:19:35.100Z,23.95
2024-02-28T19:22:03.044Z,26.63
2024-02-28T19:24:30.596Z,25.83
2024-02-28T19:26:57.902Z,24.10
2024-02-28T19:29:24.818Z,27.23
2024-02-28T19:31:52.375Z,22.95
2024-02-28T19:34:19.906Z,27.88
2024-02-28T19:36:46.755Z,22.00
2024-02-28T19:39:14.178Z,7.38
2024-02-28T19:41:41.483Z,28.77
2024-02-28T19:44:08.511Z,34.70
2024-02-28T19:46:35.360Z,28.00
2024-02-28T19:49:04.892Z,23.88
2024-02-28T19:51:31.773Z,25.17
2024-02-28T19:53:59.461Z,23.63
2024-02-28T19:56:27.268Z,22.15
2024-02-28T19:58:55.111Z,20.17
2024-02-28T20:01:23.249Z,22.80
2024-02-28T20:03:50.484Z,36.00
2024-02-28T20:06:17.588Z,30.10
2024-02-28T20:08:44.859Z,30.38
2024-02-28T20:11:12.105Z,28.33
2024-02-28T20:13:44.674Z,33.30
2024-02-28T20:18:38.655Z,21.55
2024-02-28T20:21:14.557Z,24.30
2024-02-28T20:23:50.004Z,18.08
2024-02-28T20:26:18.156Z,40.30
2024-02-28T20:28:45.065Z,17.17
2024-02-28T20:31:12.738Z,31.95
2024-02-28T20:33:39.681Z,38.47
2024-02-28T20:36:11.052Z,29.10
2024-02-28T20:38:39.828Z,44.15
2024-02-28T20:41:07.816Z,42.75
2024-02-28T20:43:35.265Z,48.72
2024-02-28T20:46:02.483Z,18.65
2024-02-28T20:48:29.819Z,46.10
2024-02-28T20:50:57.161Z,34.17
2024-02-28T20:53:24.619Z,48.33
2024-02-28T20:55:52.698Z,43.38
2024-02-28T20:58:20.124Z,43.20
2024-02-28T21:00:47.302Z,33.40
2024-02-28T21:03:14.648Z,44.25
2024-02-28T21:05:41.852Z,29.40
2024-02-28T21:08:12.565Z,45.08
2024-02-28T21:10:40.106Z,35.45
2024-02-28T21:13:07.173Z,23.25
2024-02-28T21:15:34.750Z,37.13
2024-02-28T21:18:02.753Z,51.70
2024-02-28T21:20:31.114Z,43.47
2024-02-28T21:22:58.799Z,48.33
2024-02-28T21:25:26.802Z,52.78
2024-02-28T21:27:55.010Z,55.05
2024-02-28T21:30:22.514Z,30.90
2024-02-28T21:32:50.598Z,49.70
2024-02-28T21:35:18.317Z,36.85
2024-02-28T21:37:49.126Z,36.42
2024-02-28T21:40:16.763Z,32.30
2024-02-28T21:42:45.367Z,36.47
2024-02-28T21:45:12.379Z,46.97
2024-02-28T21:47:39.222Z,39.60
2024-02-28T21:50:07.184Z,35.60
2024-02-28T21:52:34.280Z,48.65
2024-02-28T21:55:01.689Z,47.30
2024-02-28T21:57:28.472Z,36.95
2024-02-28T21:59:55.432Z,48.83
2024-02-28T22:02:22.405Z,32.60
2024-02-28T22:04:49.450Z,72.20
2024-02-28T22:07:16.175Z,49.53
2024-02-28T22:09:43.387Z,36.00
2024-02-28T22:12:10.732Z,40.15
2024-02-28T22:14:37.924Z,47.05
2024-02-28T22:17:05.701Z,32.58
2024-02-28T22:19:33.290Z,29.50
2024-02-28T22:22:02.869Z,69.40
2024-02-28T22:24:29.849Z,27.77
2024-02-28T22:26:56.534Z,30.80
2024-02-28T22:29:23.892Z,28.70
2024-02-28T22:31:50.909Z,55.75
2024-02-28T22:34:18.926Z,24.38
2024-02-28T22:36:46.269Z,39.75
2024-02-28T22:39:13.072Z,40.42
2024-02-28T22:41:42.393Z,34.92
2024-02-28T22:44:09.534Z,35.20
2024-02-28T22:46:36.863Z,38.10
2024-02-28T22:49:05.175Z,32.47
2024-02-28T22:51:32.849Z,35.78
2024-02-28T22:54:00.112Z,36.63
2024-02-28T22:56:26.940Z,36.10
2024-02-28T22:58:53.663Z,38.90
2024-02-28T23:01:20.785Z,36.80
2024-02-28T23:03:48.298Z,44.58
2024-02-28T23:06:14.965Z,32.13
2024-02-28T23:08:41.763Z,36.15
2024-02-28T23:11:08.640Z,33.20
2024-02-28T23:13:36.358Z,36.47
2024-02-28T23:16:03.224Z,39.47
2024-02-28T23:18:29.946Z,40.45
2024-02-28T23:20:56.587Z,33.80
2024-02-28T23:23:23.407Z,29.90
2024-02-28T23:25:50.120Z,33.53
2024-02-28T23:28:16.741Z,39.85
2024-02-28T23:30:43.346Z,31.90
2024-02-28T23:33:10.590Z,29.95
2024-02-28T23:35:37.114Z,26.70
2024-02-28T23:38:04.430Z,32.67
2024-02-28T23:40:31.953Z,42.90
2024-02-28T23:42:58.553Z,47.85
2024-02-28T23:45:25.151Z,27.00
2024-02-28T23:47:51.781Z,41.15
2024-02-28T23:50:20.637Z,38.95
2024-02-28T23:52:47.514Z,36.53
2024-02-28T23:55:14.974Z,43.08
2024-02-28T23:57:42.275Z,36.65
